Time;durP1;ratioP1;P1;durP2;ratioP2;P2;SDS_P1;SDS_P2;PMS_P1;PMS_P2;Temp;Humidity;BMP_temperature;BMP_pressure;BME280_temperature;BME280_humidity;BME280_pressure;Samples;Min_cycle;Max_cycle;Signal;HPM_P1;HPM_P2
2024/01/16 00:00:43;;;;;;;1.60;1.50;;;;;;;5.22;100.00;97502.91;5109295;28;20227;-62
2024/01/16 00:03:11;;;;;;;2.13;1.70;;;;;;;5.27;100.00;97509.38;5109295;28;20201;-62
2024/01/16 00:05:38;;;;;;;5.87;2.33;;;;;;;5.16;100.00;97523.66;5109068;28;20241;-62
2024/01/16 00:08:05;;;;;;;1.80;1.27;;;;;;;5.15;100.00;97524.59;5108893;28;20197;-62
2024/01/16 00:10:31;;;;;;;3.87;2.63;;;;;;;4.92;100.00;97535.63;5108682;28;20304;-62
2024/01/16 00:12:58;;;;;;;5.50;3.00;;;;;;;4.67;100.00;97537.41;5108810;28;20208;-62
2024/01/16 00:15:25;;;;;;;2.90;2.13;;;;;;;4.42;100.00;97545.16;5109146;28;20224;-62
2024/01/16 00:17:53;;;;;;;7.70;3.33;;;;;;;4.22;100.00;97539.81;5108871;28;20193;-62
2024/01/16 00:20:23;;;;;;;4.00;2.23;;;;;;;4.07;100.00;97535.81;5109102;28;20239;-62
2024/01/16 00:22:50;;;;;;;4.10;2.67;;;;;;;3.81;100.00;97543.53;5109239;28;20201;-62
2024/01/16 00:25:19;;;;;;;3.40;2.67;;;;;;;3.74;100.00;97537.28;5108677;28;20235;-62
2024/01/16 00:27:46;;;;;;;4.40;2.47;;;;;;;3.79;100.00;97540.31;5108646;28;20197;-62
2024/01/16 00:30:14;;;;;;;2.37;2.07;;;;;;;3.90;100.00;97551.38;5108796;28;20212;-62
2024/01/16 00:32:41;;;;;;;2.63;2.20;;;;;;;3.96;100.00;97551.78;5108794;28;20810;-62
2024/01/16 00:35:08;;;;;;;2.97;2.17;;;;;;;3.96;100.00;97550.97;5108694;28;20205;-62
2024/01/16 00:37:37;;;;;;;4.47;2.57;;;;;;;3.90;100.00;97561.50;5108719;28;20590;-62
2024/01/16 00:40:05;;;;;;;3.27;1.70;;;;;;;3.89;100.00;97563.22;5108693;28;20209;-62
2024/01/16 00:42:32;;;;;;;4.57;3.03;;;;;;;3.78;100.00;97563.97;5108474;28;20751;-62
2024/01/16 00:44:59;;;;;;;4.00;2.40;;;;;;;3.84;100.00;97568.59;5108360;28;20227;-62
2024/01/16 00:47:26;;;;;;;2.93;2.37;;;;;;;3.79;100.00;97569.84;5108748;28;20201;-62
2024/01/16 00:49:52;;;;;;;5.50;2.97;;;;;;;3.81;100.00;97568.81;5108475;28;20197;-62
2024/01/16 00:52:19;;;;;;;5.53;3.37;;;;;;;3.92;100.00;97572.31;5108653;28;20204;-62
2024/01/16 00:54:47;;;;;;;9.67;2.83;;;;;;;3.98;100.00;97564.28;5108450;28;20216;-62
2024/01/16 00:57:16;;;;;;;6.37;3.33;;;;;;;4.04;100.00;97572.28;5108464;28;20697;-62
2024/01/16 00:59:42;;;;;;;7.00;2.40;;;;;;;4.03;100.00;97579.97;5108375;28;20197;-62
2024/01/16 01:02:11;;;;;;;4.47;2.47;;;;;;;4.02;100.00;97581.69;5108677;28;20225;-62
2024/01/16 01:04:38;;;;;;;3.57;2.43;;;;;;;3.80;100.00;97574.78;5110664;28;20219;-62
2024/01/16 01:07:05;;;;;;;3.87;3.00;;;;;;;3.75;100.00;97579.34;5112109;28;20245;-62
2024/01/16 01:09:33;;;;;;;5.73;2.73;;;;;;;3.76;100.00;97583.50;5112085;28;20704;-62
2024/01/16 01:12:01;;;;;;;3.93;2.60;;;;;;;3.76;100.00;97591.06;5111924;28;20197;-62
2024/01/16 01:14:29;;;;;;;5.23;3.13;;;;;;;3.71;100.00;97598.16;5111963;28;20205;-62
2024/01/16 01:16:56;;;;;;;5.97;3.27;;;;;;;3.67;100.00;97621.22;5111959;28;20675;-62
2024/01/16 01:19:23;;;;;;;5.40;3.70;;;;;;;3.61;100.00;97609.81;5112123;28;20212;-62
2024/01/16 01:21:50;;;;;;;3.53;3.07;;;;;;;3.54;100.00;97618.69;5112155;28;20233;-62
2024/01/16 01:24:17;;;;;;;7.57;4.03;;;;;;;3.47;100.00;97625.91;5112109;28;20201;-62
2024/01/16 01:26:44;;;;;;;5.30;3.30;;;;;;;3.38;100.00;97622.25;5111686;28;20248;-62
2024/01/16 01:29:12;;;;;;;5.07;3.23;;;;;;;3.29;100.00;97632.97;5111902;28;20402;-62
2024/01/16 01:31:39;;;;;;;5.97;4.40;;;;;;;3.17;100.00;97628.72;5111712;28;20205;-61
2024/01/16 01:34:07;;;;;;;4.63;2.80;;;;;;;3.16;100.00;97627.09;5111726;28;20591;-62
2024/01/16 01:36:34;;;;;;;7.97;3.10;;;;;;;3.09;100.00;97638.53;5111724;27;20502;-62
2024/01/16 01:39:00;;;;;;;6.43;3.70;;;;;;;2.99;100.00;97642.53;5111572;28;20681;-62
2024/01/16 01:41:27;;;;;;;6.63;3.27;;;;;;;3.00;100.00;97646.69;5111770;28;20217;-62
2024/01/16 01:43:54;;;;;;;4.57;3.00;;;;;;;2.93;100.00;97661.41;5111435;28;20213;-62
2024/01/16 01:46:22;;;;;;;7.53;2.97;;;;;;;2.87;100.00;97657.56;5111452;28;20232;-62
2024/01/16 01:48:50;;;;;;;4.97;2.63;;;;;;;2.85;100.00;97674.53;5111772;28;20594;-61
2024/01/16 01:51:19;;;;;;;2.60;2.23;;;;;;;2.90;100.00;97697.75;5111474;28;20205;-61
2024/01/16 01:53:49;;;;;;;3.93;2.90;;;;;;;2.80;100.00;97711.88;5111337;28;20198;-62
2024/01/16 01:56:19;;;;;;;6.77;4.33;;;;;;;2.74;100.00;97712.25;5111369;28;20296;-62
2024/01/16 01:58:47;;;;;;;5.60;3.67;;;;;;;2.51;100.00;97720.44;5111270;28;20208;-61
2024/01/16 02:01:17;;;;;;;6.93;3.63;;;;;;;2.37;100.00;97726.31;5111528;28;20198;-62
2024/01/16 02:03:46;;;;;;;8.73;4.73;;;;;;;2.20;100.00;97724.81;5111039;28;20201;-62
2024/01/16 02:06:15;;;;;;;6.33;4.43;;;;;;;2.02;100.00;97730.06;5111013;28;20640;-62
2024/01/16 02:08:42;;;;;;;7.63;4.37;;;;;;;1.85;100.00;97742.84;5111281;28;20686;-62
2024/01/16 02:11:09;;;;;;;9.23;4.23;;;;;;;1.77;100.00;97750.03;5110871;28;20201;-62
2024/01/16 02:13:36;;;;;;;5.53;4.13;;;;;;;1.70;100.00;97753.81;5111152;28;20738;-62
2024/01/16 02:16:03;;;;;;;8.00;4.30;;;;;;;1.59;100.00;97762.78;5110046;28;20310;-61
2024/01/16 02:18:30;;;;;;;12.63;4.77;;;;;;;1.59;100.00;97767.81;5110914;28;20747;-62
2024/01/16 02:21:01;;;;;;;4.63;3.73;;;;;;;1.53;100.00;97783.28;5110789;28;20686;-62
2024/01/16 02:23:31;;;;;;;9.73;4.93;;;;;;;1.44;100.00;97786.31;5111072;28;20345;-62
2024/01/16 02:25:57;;;;;;;7.03;4.73;;;;;;;1.39;100.00;97790.00;5110507;28;20232;-61
2024/01/16 02:28:24;;;;;;;7.07;4.40;;;;;;;1.39;100.00;97800.88;5111200;28;20197;-62
2024/01/16 02:30:51;;;;;;;11.00;5.47;;;;;;;1.40;100.00;97812.59;5110642;28;20686;-62
2024/01/16 02:33:18;;;;;;;7.57;4.77;;;;;;;1.40;100.00;97807.56;5110709;28;20212;-62
2024/01/16 02:35:45;;;;;;;5.87;4.03;;;;;;;1.41;100.00;97824.28;5110818;28;20193;-62
2024/01/16 02:38:12;;;;;;;7.13;4.80;;;;;;;1.45;100.00;97827.44;5110709;28;20205;-62
2024/01/16 02:40:40;;;;;;;12.23;5.40;;;;;;;1.42;100.00;97833.44;5110565;28;20614;-61
2024/01/16 02:43:07;;;;;;;5.60;3.70;;;;;;;1.49;100.00;97842.28;5110626;28;20606;-62
2024/01/16 02:45:35;;;;;;;8.97;4.00;;;;;;;1.56;100.00;97847.78;5110024;28;20208;-62
2024/01/16 02:48:03;;;;;;;7.13;4.27;;;;;;;1.58;100.00;97841.78;5110149;28;20193;-62
2024/01/16 02:50:30;;;;;;;7.17;4.03;;;;;;;1.63;100.00;97848.25;5110208;28;20312;-62
2024/01/16 02:52:56;;;;;;;9.20;4.90;;;;;;;1.59;100.00;97863.53;5110307;28;20201;-62
2024/01/16 02:55:23;;;;;;;8.40;4.50;;;;;;;1.58;100.00;97877.03;5110199;28;20205;-62
2024/01/16 02:57:51;;;;;;;4.80;3.50;;;;;;;1.61;100.00;97886.16;5110069;28;20254;-62
2024/01/16 03:00:18;;;;;;;6.87;4.00;;;;;;;1.44;100.00;97897.13;5110251;28;20197;-62
2024/01/16 03:02:45;;;;;;;5.50;4.03;;;;;;;1.45;100.00;97906.31;5110177;28;20209;-62
2024/01/16 03:05:12;;;;;;;5.47;4.20;;;;;;;1.35;100.00;97912.75;5109986;28;20201;-62
2024/01/16 03:07:39;;;;;;;7.73;5.80;;;;;;;1.30;100.00;97927.28;5110071;28;20236;-61
2024/01/16 03:10:07;;;;;;;5.90;4.77;;;;;;;1.29;100.00;97923.97;5109895;28;20766;-61
2024/01/16 03:12:34;;;;;;;6.53;4.00;;;;;;;1.34;100.00;97928.75;5109926;28;20201;-61
2024/01/16 03:15:02;;;;;;;5.47;4.00;;;;;;;1.36;100.00;97931.97;5109822;28;20205;-61
2024/01/16 03:17:29;;;;;;;8.67;5.33;;;;;;;1.30;100.00;97932.31;5109882;28;20198;-61
2024/01/16 03:19:56;;;;;;;8.47;5.00;;;;;;;1.29;100.00;97934.03;5109526;28;20197;-61
2024/01/16 03:22:24;;;;;;;4.97;3.20;;;;;;;1.27;100.00;97927.44;5109678;28;20205;-61
2024/01/16 03:24:51;;;;;;;8.70;5.10;;;;;;;1.26;100.00;97933.38;5109615;28;20198;-61
2024/01/16 03:27:17;;;;;;;5.53;4.03;;;;;;;1.29;100.00;97936.53;5109480;28;20264;-61
2024/01/16 03:29:44;;;;;;;9.73;4.77;;;;;;;1.35;100.00;97940.44;5109424;28;20592;-61
2024/01/16 03:32:12;;;;;;;6.73;3.97;;;;;;;1.31;100.00;97944.03;5109463;28;20685;-61
2024/01/16 03:34:40;;;;;;;6.83;3.40;;;;;;;1.26;100.00;97951.81;5109402;28;20201;-61
2024/01/16 03:37:07;;;;;;;4.67;4.07;;;;;;;1.27;100.00;97963.50;5109334;28;20197;-61
2024/01/16 03:39:33;;;;;;;5.70;3.97;;;;;;;1.20;100.00;97968.97;5109391;28;20201;-61
2024/01/16 03:42:00;;;;;;;6.23;3.93;;;;;;;1.21;100.00;97965.53;5109241;28;20205;-61
2024/01/16 03:44:27;;;;;;;8.97;4.53;;;;;;;1.25;100.00;97979.56;5109225;28;20592;-61
2024/01/16 03:46:54;;;;;;;5.63;3.93;;;;;;;1.30;100.00;97977.63;5109213;28;20244;-61
2024/01/16 03:49:23;;;;;;;6.30;5.07;;;;;;;1.31;100.00;97979.28;5109419;28;20201;-61
2024/01/16 03:51:49;;;;;;;7.20;3.70;;;;;;;1.33;100.00;97992.59;5109300;28;20681;-61
2024/01/16 03:54:16;;;;;;;8.10;3.60;;;;;;;1.27;100.00;97992.91;5109287;28;20208;-61
2024/01/16 03:56:43;;;;;;;5.93;5.10;;;;;;;1.22;100.00;97992.31;5108942;28;20221;-61
2024/01/16 03:59:10;;;;;;;8.93;3.97;;;;;;;1.22;100.00;97994.84;5109016;28;20733;-61
2024/01/16 04:01:37;;;;;;;6.00;4.10;;;;;;;1.25;100.00;97995.53;5109205;28;20213;-61
2024/01/16 04:04:06;;;;;;;11.97;5.13;;;;;;;1.27;100.00;98008.00;5109137;28;20281;-61
2024/01/16 04:06:34;;;;;;;7.57;3.90;;;;;;;1.23;100.00;98019.16;5108875;28;20686;-61
2024/01/16 04:09:01;;;;;;;9.13;4.23;;;;;;;1.25;100.00;98029.94;5109139;28;20220;-61
2024/01/16 04:11:28;;;;;;;7.67;3.63;;;;;;;1.25;100.00;98034.97;5108994;28;20313;-61
2024/01/16 04:13:54;;;;;;;5.83;4.10;;;;;;;1.22;100.00;98040.16;5109164;28;20197;-61
2024/01/16 04:16:21;;;;;;;8.20;3.73;;;;;;;1.31;100.00;98043.03;5108877;28;20193;-61
2024/01/16 04:18:48;;;;;;;3.87;2.70;;;;;;;1.21;100.00;98056.97;5108774;28;20612;-61
2024/01/16 04:21:15;;;;;;;7.50;3.20;;;;;;;1.23;100.00;98059.44;5109202;28;20578;-61
2024/01/16 04:23:44;;;;;;;5.53;3.33;;;;;;;1.23;100.00;98072.03;5109021;28;20545;-61
2024/01/16 04:26:10;;;;;;;4.57;2.93;;;;;;;1.29;100.00;98072.50;5108724;28;20627;-61
2024/01/16 04:28:38;;;;;;;4.97;2.77;;;;;;;1.27;100.00;98076.00;5108796;28;20201;-61
2024/01/16 04:31:05;;;;;;;3.20;2.27;;;;;;;1.32;100.00;98086.66;5108784;28;20281;-61
2024/01/16 04:33:32;;;;;;;2.80;2.20;;;;;;;1.32;100.00;98089.19;5108914;28;20205;-61
2024/01/16 04:35:59;;;;;;;7.47;4.07;;;;;;;1.27;100.00;98088.59;5108677;28;20208;-61
2024/01/16 04:38:25;;;;;;;8.60;3.23;;;;;;;1.26;100.00;98092.00;5108837;28;20201;-61
2024/01/16 04:40:54;;;;;;;4.00;3.00;;;;;;;1.29;100.00;98099.41;5112897;28;20223;-61
2024/01/16 04:43:20;;;;;;;3.37;2.73;;;;;;;1.34;100.00;98110.06;5112782;28;20200;-61
2024/01/16 04:45:47;;;;;;;5.20;3.03;;;;;;;1.21;100.00;98114.06;5112599;28;20204;-61
2024/01/16 04:48:14;;;;;;;5.43;3.00;;;;;;;1.17;100.00;98113.41;5112584;28;20247;-61
2024/01/16 04:50:41;;;;;;;7.60;2.93;;;;;;;1.18;100.00;98124.28;5112702;28;20595;-61
2024/01/16 04:53:08;;;;;;;6.77;3.03;;;;;;;1.12;100.00;98146.34;5112721;28;20201;-61
2024/01/16 04:55:34;;;;;;;1.47;1.37;;;;;;;1.19;100.00;98146.06;5112565;28;20193;-61
2024/01/16 04:58:03;;;;;;;3.90;2.40;;;;;;;1.20;100.00;98152.75;5112423;28;20363;-61
2024/01/16 05:00:30;;;;;;;4.17;2.50;;;;;;;1.20;100.00;98167.84;5112275;28;20309;-61
2024/01/16 05:02:57;;;;;;;2.13;1.63;;;;;;;1.19;100.00;98166.19;5112482;28;20204;-61
2024/01/16 05:05:24;;;;;;;1.40;1.03;;;;;;;1.18;100.00;98160.34;5112294;28;20201;-61
2024/01/16 05:07:51;;;;;;;2.73;1.90;;;;;;;1.16;100.00;98171.38;5112191;28;20244;-61
2024/01/16 05:10:17;;;;;;;2.70;2.33;;;;;;;1.22;100.00;98174.44;5112452;28;20201;-61
2024/01/16 05:12:44;;;;;;;2.73;2.10;;;;;;;1.19;100.00;98186.34;5111945;28;20211;-61
2024/01/16 05:15:12;;;;;;;4.63;2.43;;;;;;;1.13;100.00;98183.25;5112427;28;20194;-61
2024/01/16 05:17:39;;;;;;;2.03;1.70;;;;;;;1.17;100.00;98193.16;5112391;28;20197;-61
2024/01/16 05:20:08;;;;;;;2.03;1.50;;;;;;;1.12;100.00;98193.38;5112089;28;20193;-61
2024/01/16 05:22:34;;;;;;;1.80;1.70;;;;;;;1.08;100.00;98195.22;5112018;28;20669;-61
2024/01/16 05:25:01;;;;;;;2.17;1.93;;;;;;;1.01;100.00;98201.44;5111895;28;20217;-61
2024/01/16 05:27:28;;;;;;;4.77;2.57;;;;;;;0.90;100.00;98196.94;5111778;28;20737;-61
2024/01/16 05:29:55;;;;;;;3.67;1.73;;;;;;;0.89;100.00;98189.44;5112339;28;20215;-61
2024/01/16 05:32:24;;;;;;;3.97;2.10;;;;;;;0.83;100.00;98200.59;5112068;28;20232;-61
2024/01/16 05:34:51;;;;;;;4.70;3.10;;;;;;;0.84;100.00;98208.97;5111915;28;20255;-61
2024/01/16 05:37:18;;;;;;;2.43;1.83;;;;;;;0.81;100.00;98221.69;5111860;27;20620;-61
2024/01/16 05:39:45;;;;;;;1.53;1.43;;;;;;;0.82;100.00;98218.31;5111621;28;20200;-61
2024/01/16 05:42:12;;;;;;;1.60;1.30;;;;;;;0.83;100.00;98230.00;5111599;28;20670;-61
2024/01/16 05:44:39;;;;;;;1.80;1.43;;;;;;;0.83;100.00;98237.53;5111555;28;20569;-61
2024/01/16 05:47:06;;;;;;;1.63;1.53;;;;;;;0.79;100.00;98243.59;5111564;28;20225;-61
2024/01/16 05:49:34;;;;;;;1.40;1.03;;;;;;;0.79;100.00;98246.13;5111509;28;20201;-61
2024/01/16 05:52:01;;;;;;;3.80;2.03;;;;;;;0.71;100.00;98246.47;5110853;28;20471;-61
2024/01/16 05:54:28;;;;;;;1.30;1.20;;;;;;;0.71;100.00;98265.78;5111397;28;20258;-61
2024/01/16 05:56:55;;;;;;;2.20;1.60;;;;;;;0.66;100.00;98274.34;5111193;28;20204;-61
2024/01/16 05:59:22;;;;;;;1.67;1.37;;;;;;;0.64;100.00;98287.84;5111599;28;20205;-61
2024/01/16 06:01:50;;;;;;;1.80;1.20;;;;;;;0.64;100.00;98296.25;5111069;28;20209;-62
2024/01/16 06:04:17;;;;;;;1.60;1.37;;;;;;;0.65;100.00;98307.94;5111115;28;20225;-61
2024/01/16 06:06:47;;;;;;;1.37;1.13;;;;;;;0.65;100.00;98312.97;5111006;28;20197;-61
2024/01/16 06:09:15;;;;;;;2.53;2.00;;;;;;;0.63;100.00;98324.78;5111289;28;21153;-61
2024/01/16 06:11:42;;;;;;;2.07;1.23;;;;;;;0.65;100.00;98332.28;5111146;28;20218;-61
2024/01/16 06:14:09;;;;;;;1.30;0.83;;;;;;;0.65;100.00;98343.16;5110998;28;20193;-61
2024/01/16 06:16:36;;;;;;;1.53;1.40;;;;;;;0.67;100.00;98343.91;5111008;28;20197;-61
2024/01/16 06:19:03;;;;;;;1.90;1.37;;;;;;;0.72;100.00;98348.72;5111039;28;20212;-61
2024/01/16 06:21:29;;;;;;;3.67;1.50;;;;;;;0.63;100.00;98349.13;5110944;28;20205;-61
2024/01/16 06:23:58;;;;;;;1.63;1.17;;;;;;;0.67;100.00;98369.06;5110740;28;20208;-61
2024/01/16 06:26:24;;;;;;;0.60;0.60;;;;;;;0.73;100.00;98359.59;5110932;28;20205;-61
2024/01/16 06:28:51;;;;;;;0.90;0.80;;;;;;;0.83;100.00;98370.91;5110709;28;20240;-61
2024/01/16 06:31:18;;;;;;;0.90;0.50;;;;;;;0.91;100.00;98383.97;5110849;28;20201;-61
2024/01/16 06:33:45;;;;;;;0.50;0.50;;;;;;;1.00;100.00;98383.56;5110912;28;20269;-62
2024/01/16 06:36:12;;;;;;;0.53;0.53;;;;;;;1.09;100.00;98393.19;5110606;28;20201;-61
2024/01/16 06:38:40;;;;;;;0.40;0.37;;;;;;;1.15;100.00;98401.38;5110496;28;20197;-61
2024/01/16 06:41:09;;;;;;;0.50;0.50;;;;;;;1.17;100.00;98404.66;5110541;28;20197;-62
2024/01/16 06:43:36;;;;;;;0.60;0.60;;;;;;;1.26;100.00;98419.34;5110430;28;20568;-61
2024/01/16 06:46:03;;;;;;;0.40;0.40;;;;;;;1.34;100.00;98424.84;5110199;28;20201;-61
2024/01/16 06:48:30;;;;;;;0.47;0.47;;;;;;;1.38;100.00;98433.88;5110484;27;20316;-61
2024/01/16 06:50:57;;;;;;;0.20;0.20;;;;;;;1.46;100.00;98434.34;5110281;28;20205;-61
2024/01/16 06:53:23;;;;;;;1.80;1.07;;;;;;;1.51;100.00;98440.00;5110194;28;20686;-61
2024/01/16 06:55:50;;;;;;;0.60;0.50;;;;;;;1.63;100.00;98450.38;5110433;28;20232;-61
2024/01/16 06:58:18;;;;;;;0.40;0.40;;;;;;;1.69;100.00;98467.75;5110325;28;20262;-61
2024/01/16 07:00:46;;;;;;;0.50;0.50;;;;;;;1.76;100.00;98479.19;5110039;28;20205;-61
2024/01/16 07:03:13;;;;;;;0.30;0.30;;;;;;;1.91;100.00;98483.50;5109774;28;20292;-61
2024/01/16 07:05:41;;;;;;;0.27;0.27;;;;;;;2.01;100.00;98484.72;5109867;28;20198;-61
2024/01/16 07:08:08;;;;;;;0.40;0.40;;;;;;;2.14;100.00;98494.22;5109916;28;20225;-61
2024/01/16 07:10:35;;;;;;;0.60;0.60;;;;;;;2.30;100.00;98505.22;5109949;28;20220;-61
2024/01/16 07:13:02;;;;;;;0.40;0.40;;;;;;;2.62;100.00;98513.75;5109713;28;20690;-61
2024/01/16 07:15:30;;;;;;;1.63;0.50;;;;;;;2.97;100.00;98535.59;5110002;28;20225;-61
2024/01/16 07:17:57;;;;;;;0.30;0.30;;;;;;;3.18;100.00;98524.44;5109616;28;20659;-61
2024/01/16 07:20:24;;;;;;;0.30;0.30;;;;;;;3.26;100.00;98526.53;5110060;28;20193;-61
2024/01/16 07:22:51;;;;;;;0.43;0.30;;;;;;;3.34;100.00;98540.41;5109638;28;20201;-61
2024/01/16 07:25:18;;;;;;;0.70;0.60;;;;;;;3.25;100.00;98535.84;5109537;28;20197;-62
2024/01/16 07:27:48;;;;;;;1.67;0.57;;;;;;;3.55;100.00;98532.59;5109796;27;20784;-61
2024/01/16 07:30:15;;;;;;;0.43;0.43;;;;;;;3.58;100.00;98532.47;5109466;27;20201;-61
2024/01/16 07:32:43;;;;;;;0.50;0.47;;;;;;;3.40;100.00;98535.06;5109390;28;20209;-61
2024/01/16 07:35:10;;;;;;;0.50;0.50;;;;;;;3.49;100.00;98533.78;5109542;28;20197;-61
2024/01/16 07:37:37;;;;;;;0.77;0.77;;;;;;;3.71;100.00;98541.03;5109562;28;20205;-62
2024/01/16 07:40:05;;;;;;;0.87;0.60;;;;;;;3.65;100.00;98546.41;5109401;28;20224;-61
2024/01/16 07:42:34;;;;;;;0.47;0.47;;;;;;;3.55;100.00;98545.25;5109549;28;20236;-61
2024/01/16 07:45:01;;;;;;;0.70;0.70;;;;;;;3.49;100.00;98553.16;5109323;28;20258;-61
2024/01/16 07:47:27;;;;;;;0.90;0.80;;;;;;;3.42;100.00;98556.91;5108980;28;20282;-61
2024/01/16 07:49:56;;;;;;;2.83;1.33;;;;;;;3.06;100.00;98561.22;5109309;28;20205;-61
2024/01/16 07:52:23;;;;;;;1.30;0.90;;;;;;;3.19;100.00;98551.31;5109321;28;20263;-61
2024/01/16 07:54:49;;;;;;;1.20;0.77;;;;;;;3.21;100.00;98564.69;5109374;28;20201;-61
2024/01/16 07:57:16;;;;;;;0.43;0.43;;;;;;;3.29;100.00;98547.44;5109118;28;20622;-61
2024/01/16 07:59:43;;;;;;;0.47;0.47;;;;;;;3.14;100.00;98561.66;5109255;28;20208;-61
2024/01/16 08:02:10;;;;;;;0.90;0.87;;;;;;;3.21;100.00;98574.78;5109162;28;20200;-61
2024/01/16 08:04:37;;;;;;;0.93;0.80;;;;;;;3.23;100.00;98595.75;5109011;28;20205;-61
2024/01/16 08:07:05;;;;;;;1.43;0.60;;;;;;;3.32;100.00;98609.63;5108940;28;20215;-61
2024/01/16 08:09:32;;;;;;;2.57;1.10;;;;;;;3.33;100.00;98619.63;5109138;28;20232;-61
2024/01/16 08:12:01;;;;;;;0.73;0.73;;;;;;;3.36;100.00;98624.53;5108660;28;20217;-62
2024/01/16 08:14:28;;;;;;;1.30;1.20;;;;;;;3.38;100.00;98632.88;5108192;28;20193;-62
2024/01/16 08:16:55;;;;;;;0.70;0.70;;;;;;;3.26;100.00;98636.00;5108890;28;20264;-62
2024/01/16 08:19:22;;;;;;;0.87;0.73;;;;;;;3.13;100.00;98627.41;5108989;28;20204;-62
2024/01/16 08:21:49;;;;;;;0.60;0.60;;;;;;;3.11;100.00;98629.16;5108783;28;20204;-62
2024/01/16 08:24:17;;;;;;;0.47;0.47;;;;;;;3.02;100.00;98630.44;5108912;28;20236;-62
2024/01/16 08:26:44;;;;;;;1.00;0.90;;;;;;;2.92;100.00;98634.31;5109189;28;20213;-62
2024/01/16 08:29:10;;;;;;;0.90;0.70;;;;;;;2.91;100.00;98642.78;5109041;28;20728;-62
2024/01/16 08:31:37;;;;;;;1.20;0.73;;;;;;;2.84;100.00;98651.53;5108913;28;20197;-61
2024/01/16 08:34:04;;;;;;;0.67;0.60;;;;;;;2.77;100.00;98661.09;5108757;28;20201;-62
2024/01/16 08:36:31;;;;;;;0.77;0.77;;;;;;;2.75;100.00;98662.88;5108600;28;20201;-62
2024/01/16 08:38:58;;;;;;;1.97;1.03;;;;;;;2.68;100.00;98666.59;5108754;28;20201;-62
2024/01/16 08:41:26;;;;;;;0.50;0.50;;;;;;;2.51;100.00;98669.09;5108630;28;20200;-62
2024/01/16 08:43:54;;;;;;;2.00;1.20;;;;;;;2.48;100.00;98658.22;5108748;28;20193;-62
2024/01/16 08:46:21;;;;;;;1.93;1.17;;;;;;;2.41;100.00;98679.56;5108658;28;20198;-62
2024/01/16 08:48:48;;;;;;;1.60;0.87;;;;;;;2.49;100.00;98682.56;5108484;28;20663;-61
2024/01/16 08:51:14;;;;;;;1.57;0.80;;;;;;;2.59;100.00;98697.28;5108548;28;20209;-61
2024/01/16 08:53:41;;;;;;;1.07;0.93;;;;;;;2.92;100.00;98705.81;5108521;28;20228;-61
2024/01/16 08:56:08;;;;;;;1.03;0.60;;;;;;;3.29;100.00;98705.78;5108560;28;20330;-62
2024/01/16 08:58:38;;;;;;;1.27;0.90;;;;;;;3.94;100.00;98703.38;5108455;28;20209;-62
2024/01/16 09:01:05;;;;;;;2.10;1.53;;;;;;;4.11;100.00;98708.38;5108440;28;20232;-62
2024/01/16 09:03:33;;;;;;;1.67;1.07;;;;;;;4.16;100.00;98706.44;5108588;28;20231;-62
2024/01/16 09:06:00;;;;;;;1.50;1.17;;;;;;;4.16;100.00;98726.69;5108302;28;20300;-62
2024/01/16 09:08:27;;;;;;;0.97;0.90;;;;;;;4.04;100.00;98722.22;5108322;28;20237;-62
2024/01/16 09:10:54;;;;;;;1.33;1.10;;;;;;;4.19;100.00;98726.53;5108292;28;20705;-62
2024/01/16 09:13:22;;;;;;;2.10;1.57;;;;;;;4.27;100.00;98726.91;5108537;28;20206;-62
2024/01/16 09:15:51;;;;;;;1.17;0.77;;;;;;;4.01;100.00;98722.41;5108468;28;20289;-62
2024/01/16 09:18:18;;;;;;;1.53;1.30;;;;;;;4.17;100.00;98727.50;5108560;28;20197;-62
2024/01/16 09:20:44;;;;;;;2.23;1.67;;;;;;;4.07;100.00;98724.59;5108371;28;20198;-62
2024/01/16 09:23:12;;;;;;;2.33;1.20;;;;;;;3.80;100.00;98730.19;5108345;28;20201;-62
2024/01/16 09:25:39;;;;;;;1.03;0.90;;;;;;;3.58;100.00;98739.75;5110571;28;20223;-62
2024/01/16 09:28:06;;;;;;;4.13;1.50;;;;;;;3.59;100.00;98732.06;5111838;28;20237;-62
2024/01/16 09:30:33;;;;;;;1.43;1.17;;;;;;;3.47;100.00;98731.88;5111864;28;20843;-62
2024/01/16 09:33:03;;;;;;;0.70;0.70;;;;;;;3.52;100.00;98740.00;5112049;28;20197;-62
2024/01/16 09:35:30;;;;;;;3.93;1.77;;;;;;;3.62;100.00;98742.03;5111847;28;20587;-62
2024/01/16 09:37:56;;;;;;;0.70;0.70;;;;;;;3.56;100.00;98746.56;5112137;28;20202;-62
2024/01/16 09:40:23;;;;;;;1.20;0.50;;;;;;;3.83;100.00;98750.25;5111980;28;20604;-62
2024/01/16 09:42:50;;;;;;;1.07;0.97;;;;;;;3.76;100.00;98748.13;5111752;28;20197;-62
2024/01/16 09:45:21;;;;;;;2.00;1.20;;;;;;;3.93;100.00;98759.94;5111628;28;20587;-62
2024/01/16 09:47:50;;;;;;;1.77;0.90;;;;;;;4.39;100.00;98757.53;5111373;28;20208;-62
2024/01/16 09:50:19;;;;;;;0.80;0.80;;;;;;;4.85;100.00;98772.84;5111883;28;20209;-62
2024/01/16 09:52:47;;;;;;;2.57;1.70;;;;;;;5.07;97.57;98785.19;5111392;28;20209;-62
2024/01/16 09:55:14;;;;;;;2.53;1.60;;;;;;;5.28;94.21;98790.78;5111406;28;20274;-61
2024/01/16 09:57:42;;;;;;;3.43;1.13;;;;;;;5.65;96.30;98785.28;5111518;28;20208;-62
2024/01/16 10:00:12;;;;;;;1.60;1.10;;;;;;;5.48;91.13;98797.28;5111269;28;20673;-62
2024/01/16 10:02:40;;;;;;;0.70;0.70;;;;;;;4.89;92.82;98789.53;5111228;28;20634;-62
2024/01/16 10:05:09;;;;;;;1.57;1.00;;;;;;;4.79;93.50;98790.91;5111119;28;20286;-61
2024/01/16 10:07:39;;;;;;;2.23;1.67;;;;;;;4.59;95.12;98792.75;5111124;28;20209;-62
2024/01/16 10:10:08;;;;;;;2.80;1.17;;;;;;;4.19;96.45;98796.53;5111244;28;20252;-61
2024/01/16 10:12:35;;;;;;;1.27;1.17;;;;;;;4.16;97.79;98792.47;5111019;28;20216;-62
2024/01/16 10:15:01;;;;;;;1.43;1.17;;;;;;;4.11;99.05;98802.00;5110952;28;20702;-62
2024/01/16 10:17:38;;;;;;;1.30;0.77;;;;;;;4.25;98.09;98792.00;5110965;28;20204;-62
2024/01/16 10:20:06;;;;;;;1.00;0.90;;;;;;;4.46;97.96;98799.38;5110951;28;20196;-62
2024/01/16 10:22:33;;;;;;;1.40;1.30;;;;;;;4.62;95.97;98815.38;5110762;28;20200;-62
2024/01/16 10:25:09;;;;;;;0.70;0.70;;;;;;;4.70;96.99;98815.00;5111047;28;20209;-62
2024/01/16 10:27:37;;;;;;;0.67;0.67;;;;;;;5.05;95.44;98820.72;5110820;27;20418;-62
2024/01/16 10:30:04;;;;;;;1.90;1.13;;;;;;;4.95;94.87;98817.88;5110606;28;20239;-61
2024/01/16 10:32:33;;;;;;;1.30;0.90;;;;;;;4.84;94.72;98821.88;5110679;28;20205;-62
2024/01/16 10:35:08;;;;;;;1.53;0.77;;;;;;;4.71;95.33;98814.94;5110729;28;20205;-62
2024/01/16 10:37:45;;;;;;;1.50;0.80;;;;;;;4.39;96.87;98803.91;5110176;28;20197;-61
2024/01/16 10:40:16;;;;;;;1.17;0.97;;;;;;;4.09;96.71;98806.31;5110523;28;20701;-61
2024/01/16 10:42:44;;;;;;;2.87;1.30;;;;;;;3.96;97.61;98806.09;5110522;28;20619;-62
2024/01/16 10:45:18;;;;;;;1.43;1.33;;;;;;;4.00;98.22;98810.09;5110513;28;20225;-61
2024/01/16 10:47:46;;;;;;;1.20;0.90;;;;;;;3.88;97.54;98809.91;5110165;28;20193;-62
2024/01/16 10:50:13;;;;;;;1.23;0.87;;;;;;;3.90;96.58;98814.00;5110212;28;20276;-62
2024/01/16 10:52:48;;;;;;;1.63;1.43;;;;;;;3.79;97.69;98827.16;5110436;28;20204;-61
2024/01/16 10:55:22;;;;;;;2.00;1.10;;;;;;;3.62;96.92;98817.06;5110346;28;20197;-61
2024/01/16 10:57:50;;;;;;;1.87;1.43;;;;;;;3.62;99.31;98812.00;5110186;28;20661;-61
2024/01/16 11:00:19;;;;;;;1.47;1.37;;;;;;;3.53;98.77;98808.19;5110090;28;20201;-62
2024/01/16 11:02:51;;;;;;;1.10;1.00;;;;;;;3.55;99.20;98815.69;5110128;28;20205;-61
2024/01/16 11:05:20;;;;;;;1.20;1.10;;;;;;;3.52;99.91;98820.91;5110304;28;20201;-62
2024/01/16 11:07:48;;;;;;;1.50;0.83;;;;;;;3.59;99.87;98828.13;5110131;28;20274;-62
2024/01/16 11:10:18;;;;;;;1.37;1.20;;;;;;;3.71;99.75;98841.06;5109949;28;20229;-62
2024/01/16 11:12:46;;;;;;;0.90;0.80;;;;;;;3.71;99.87;98836.81;5109713;28;20666;-62
2024/01/16 11:15:13;;;;;;;1.00;0.93;;;;;;;3.86;100.00;98836.06;5109841;28;20198;-62
2024/01/16 11:17:41;;;;;;;4.07;1.33;;;;;;;4.03;96.66;98836.97;5110023;28;20198;-62
2024/01/16 11:20:11;;;;;;;2.57;1.53;;;;;;;4.20;95.65;98839.47;5110318;28;20197;-62
2024/01/16 11:22:41;;;;;;;2.83;1.53;;;;;;;4.38;94.14;98847.03;5109953;27;20201;-62
2024/01/16 11:25:11;;;;;;;1.50;1.37;;;;;;;4.44;96.01;98856.84;5109773;28;20228;-61
2024/01/16 11:27:40;;;;;;;3.70;1.80;;;;;;;4.50;93.71;98856.53;5109626;28;20201;-61
2024/01/16 11:30:09;;;;;;;2.07;1.70;;;;;;;4.73;94.65;98853.63;5109508;28;20228;-62
2024/01/16 11:32:37;;;;;;;1.90;1.50;;;;;;;5.13;93.53;98843.94;5109590;28;20198;-62
2024/01/16 11:35:05;;;;;;;1.40;1.00;;;;;;;5.44;91.50;98857.50;5109634;28;20701;-61